createdAt,value
2023-03-17T00:01:06.064Z,3.28
2023-03-17T00:03:13.907Z,3.47
2023-03-17T00:05:22.719Z,3.45
2023-03-17T00:07:27.918Z,4.38
2023-03-17T00:09:32.952Z,3.17
2023-03-17T00:11:37.798Z,3.83
2023-03-17T00:13:42.615Z,3.17
2023-03-17T00:15:48.209Z,4.18
2023-03-17T00:17:58.359Z,4.22
2023-03-17T00:20:03.797Z,2.28
2023-03-17T00:22:17.907Z,3.47
2023-03-17T00:24:22.606Z,3.45
2023-03-17T00:26:27.881Z,3.75
2023-03-17T00:28:32.574Z,3.30
2023-03-17T00:30:37.651Z,3.92
2023-03-17T00:32:42.895Z,3.72
2023-03-17T00:34:50.300Z,4.50
2023-03-17T00:36:56.194Z,3.13
2023-03-17T00:39:02.369Z,3.80
2023-03-17T00:41:07.616Z,3.63
2023-03-17T00:43:12.789Z,3.30
2023-03-17T00:45:18.867Z,2.80
2023-03-17T00:47:23.830Z,2.70
2023-03-17T00:49:29.313Z,3.03
2023-03-17T00:51:36.817Z,3.40
2023-03-17T00:53:42.043Z,3.45
2023-03-17T00:55:48.664Z,2.78
2023-03-17T00:57:55.162Z,3.35
2023-03-17T00:59:59.970Z,2.85
2023-03-17T01:02:05.280Z,2.72
2023-03-17T01:04:12.438Z,2.53
2023-03-17T01:06:18.812Z,3.05
2023-03-17T01:08:26.981Z,4.03
2023-03-17T01:10:32.797Z,3.60
2023-03-17T01:12:38.277Z,3.88
2023-03-17T01:14:43.824Z,2.50
2023-03-17T01:16:50.584Z,2.85
2023-03-17T01:18:55.787Z,3.67
2023-03-17T01:21:00.864Z,2.42
2023-03-17T01:23:05.916Z,3.42
2023-03-17T01:25:14.989Z,2.97
2023-03-17T01:27:21.003Z,2.80
2023-03-17T01:29:25.879Z,3.80
2023-03-17T01:31:30.808Z,4.05
2023-03-17T01:33:36.614Z,3.92
2023-03-17T01:35:42.381Z,3.47
2023-03-17T01:37:47.928Z,4.82
2023-03-17T01:39:52.738Z,4.85
2023-03-17T01:42:02.082Z,3.10
2023-03-17T01:44:07.617Z,4.28
2023-03-17T01:46:28.181Z,2.95
2023-03-17T01:48:37.390Z,3.05
2023-03-17T01:50:42.734Z,2.60
2023-03-17T01:52:48.145Z,3.40
2023-03-17T01:54:57.270Z,4.28
2023-03-17T01:57:10.579Z,2.95
2023-03-17T01:59:21.399Z,3.58
2023-03-17T02:01:32.225Z,3.53
2023-03-17T02:03:37.214Z,3.30
2023-03-17T02:05:43.209Z,3.13
2023-03-17T02:07:48.522Z,2.38
2023-03-17T02:09:54.083Z,2.95
2023-03-17T02:12:01.586Z,2.00
2023-03-17T02:14:09.286Z,2.80
2023-03-17T02:16:17.700Z,3.00
2023-03-17T02:18:26.003Z,2.85
2023-03-17T02:21:13.009Z,2.38
2023-03-17T02:23:25.092Z,3.03
2023-03-17T02:25:33.435Z,3.38
2023-03-17T02:27:44.684Z,3.00
2023-03-17T02:29:50.966Z,4.15
2023-03-17T02:31:56.298Z,2.90
2023-03-17T02:34:00.960Z,3.00
2023-03-17T02:36:06.087Z,2.45
2023-03-17T02:38:11.220Z,3.22
2023-03-17T02:40:18.817Z,2.78
2023-03-17T02:42:23.792Z,3.72
2023-03-17T02:44:28.822Z,3.65
2023-03-17T02:46:33.898Z,5.40
2023-03-17T02:48:39.633Z,3.65
2023-03-17T02:50:44.424Z,3.80
2023-03-17T02:52:49.222Z,4.53
2023-03-17T02:54:54.196Z,4.18
2023-03-17T02:57:01.933Z,3.33
2023-03-17T02:59:07.615Z,4.35
2023-03-17T03:01:13.229Z,2.42
2023-03-17T03:03:18.162Z,2.60
2023-03-17T03:05:23.263Z,4.15
2023-03-17T03:07:27.990Z,2.92
2023-03-17T03:09:33.074Z,2.53
2023-03-17T03:11:37.953Z,3.45
2023-03-17T03:13:45.485Z,3.95
2023-03-17T03:15:50.754Z,2.90
2023-03-17T03:17:55.492Z,5.38
2023-03-17T03:20:00.244Z,3.00
2023-03-17T03:22:05.140Z,2.95
2023-03-17T03:24:11.044Z,3.58
2023-03-17T03:26:15.870Z,5.40
2023-03-17T03:28:20.705Z,6.00
2023-03-17T03:30:28.810Z,4.70
2023-03-17T03:32:34.062Z,4.30
2023-03-17T03:34:39.132Z,4.90
2023-03-17T03:36:44.142Z,4.32
2023-03-17T03:38:49.430Z,3.05
2023-03-17T03:40:54.205Z,3.13
2023-03-17T03:42:58.928Z,3.45
2023-03-17T03:45:03.774Z,3.58
2023-03-17T03:47:12.332Z,3.47
2023-03-17T03:49:17.166Z,3.85
2023-03-17T03:51:22.371Z,4.00
2023-03-17T03:53:27.285Z,4.68
2023-03-17T03:55:32.580Z,3.92
2023-03-17T03:57:37.702Z,3.53
2023-03-17T03:59:42.588Z,3.28
2023-03-17T04:01:47.442Z,4.07
2023-03-17T04:03:55.371Z,3.20
2023-03-17T04:06:00.155Z,4.30
2023-03-17T04:08:05.228Z,3.72
2023-03-17T04:10:11.999Z,4.93
2023-03-17T04:12:17.060Z,3.50
2023-03-17T04:14:21.852Z,3.40
2023-03-17T04:16:27.197Z,3.65
2023-03-17T04:18:32.008Z,3.38
2023-03-17T04:20:39.389Z,3.95
2023-03-17T04:22:44.535Z,3.97
2023-03-17T04:24:49.630Z,3.00
2023-03-17T04:26:54.654Z,2.83
2023-03-17T04:28:59.505Z,3.75
2023-03-17T04:31:04.636Z,3.42
2023-03-17T04:33:09.625Z,6.18
2023-03-17T04:35:17.472Z,5.00
2023-03-17T04:37:25.344Z,3.40
2023-03-17T04:39:31.001Z,3.25
2023-03-17T04:41:35.964Z,3.47
2023-03-17T04:43:41.421Z,4.93
2023-03-17T04:45:46.245Z,4.15
2023-03-17T04:47:51.115Z,2.92
2023-03-17T04:49:55.863Z,4.40
2023-03-17T04:52:00.880Z,3.25
2023-03-17T04:54:08.614Z,3.80
2023-03-17T04:56:14.173Z,3.45
2023-03-17T04:58:29.830Z,5.03
2023-03-17T05:00:38.914Z,5.30
2023-03-17T05:02:44.291Z,3.22
2023-03-17T05:04:49.476Z,3.50
2023-03-17T05:06:54.253Z,3.60
2023-03-17T05:08:59.254Z,3.70
2023-03-17T05:11:06.741Z,3.03
2023-03-17T05:13:11.722Z,3.13
2023-03-17T05:15:16.604Z,4.07
2023-03-17T05:17:21.568Z,3.70
2023-03-17T05:19:27.065Z,3.08
2023-03-17T05:21:32.177Z,2.40
2023-03-17T05:23:37.243Z,4.00
2023-03-17T05:25:42.719Z,4.75
2023-03-17T05:27:50.229Z,4.05
2023-03-17T05:29:56.103Z,6.38
2023-03-17T05:32:01.313Z,5.60
2023-03-17T05:34:07.297Z,4.90
2023-03-17T05:36:12.323Z,4.07
2023-03-17T05:38:18.125Z,5.55
2023-03-17T05:40:23.975Z,5.43
2023-03-17T05:42:28.865Z,4.18
2023-03-17T05:44:36.915Z,5.18
2023-03-17T05:46:42.178Z,3.42
2023-03-17T05:48:47.183Z,4.57
2023-03-17T05:50:52.212Z,3.63
2023-03-17T05:52:57.026Z,3.80
2023-03-17T05:55:03.783Z,4.35
2023-03-17T05:57:08.658Z,4.00
2023-03-17T05:59:15.239Z,4.28
2023-03-17T06:01:22.889Z,3.30
2023-03-17T06:03:27.739Z,3.50
2023-03-17T06:05:33.272Z,5.63
2023-03-17T06:07:51.693Z,5.28
2023-03-17T06:10:00.626Z,3.75
2023-03-17T06:12:06.861Z,4.20
2023-03-17T06:14:11.599Z,3.20
2023-03-17T06:16:16.711Z,4.80
2023-03-17T06:18:24.178Z,4.03
2023-03-17T06:20:28.909Z,4.45
2023-03-17T06:22:33.688Z,4.28
2023-03-17T06:24:38.711Z,4.00
2023-03-17T06:26:43.955Z,4.78
2023-03-17T06:28:48.632Z,3.85
2023-03-17T06:30:53.436Z,3.50
2023-03-17T06:32:58.325Z,4.03
2023-03-17T06:35:07.432Z,4.63
2023-03-17T06:37:12.396Z,4.47
2023-03-17T06:39:18.505Z,4.20
2023-03-17T06:41:23.620Z,5.15
2023-03-17T06:43:28.616Z,5.90
2023-03-17T06:45:34.692Z,3.63
2023-03-17T06:47:40.051Z,6.82
2023-03-17T06:49:44.783Z,6.50
2023-03-17T06:51:52.362Z,9.73
2023-03-17T06:53:57.121Z,7.80
2023-03-17T06:56:02.287Z,7.40
2023-03-17T06:58:07.138Z,5.20
2023-03-17T07:00:15.985Z,4.38
2023-03-17T07:02:20.697Z,4.47
2023-03-17T07:04:25.498Z,3.40
2023-03-17T07:06:31.124Z,3.78
2023-03-17T07:08:39.164Z,3.78
2023-03-17T07:10:45.961Z,5.13
2023-03-17T07:12:51.146Z,2.85
2023-03-17T07:14:56.256Z,6.53
2023-03-17T07:17:01.268Z,6.00
2023-03-17T07:19:07.420Z,4.47
2023-03-17T07:21:12.262Z,3.92
2023-03-17T07:23:18.432Z,3.97
2023-03-17T07:25:26.011Z,3.33
2023-03-17T07:27:31.442Z,3.22
2023-03-17T07:29:37.092Z,4.57
2023-03-17T07:31:44.981Z,3.20
2023-03-17T07:33:50.778Z,5.45
2023-03-17T07:35:55.886Z,3.97
2023-03-17T07:38:00.689Z,3.83
2023-03-17T07:40:06.410Z,3.03
2023-03-17T07:42:17.537Z,6.00
2023-03-17T07:44:22.777Z,3.38
2023-03-17T07:46:28.005Z,3.10
2023-03-17T07:48:33.517Z,3.55
2023-03-17T07:50:42.886Z,4.22
2023-03-17T07:52:47.724Z,4.00
2023-03-17T07:54:53.345Z,2.83
2023-03-17T07:56:58.630Z,3.35
2023-03-17T07:59:08.027Z,3.70
2023-03-17T08:01:13.238Z,4.47
2023-03-17T08:03:19.412Z,3.30
2023-03-17T08:05:24.374Z,4.15
2023-03-17T08:07:29.311Z,3.08
2023-03-17T08:09:34.065Z,2.00
2023-03-17T08:11:39.711Z,4.05
2023-03-17T08:13:44.551Z,4.22
2023-03-17T08:15:52.256Z,2.85
2023-03-17T08:17:57.359Z,4.07
2023-03-17T08:20:02.542Z,3.65
2023-03-17T08:22:07.938Z,2.85
2023-03-17T08:24:13.095Z,2.92
2023-03-17T08:26:18.791Z,3.83
2023-03-17T08:28:24.044Z,3.67
2023-03-17T08:30:31.545Z,2.63
2023-03-17T08:32:41.309Z,3.05
2023-03-17T08:34:48.197Z,3.40
2023-03-17T08:36:53.522Z,3.15
2023-03-17T08:38:58.424Z,3.30
2023-03-17T08:41:04.695Z,3.00
2023-03-17T08:43:10.881Z,4.07
2023-03-17T08:45:16.753Z,3.58
2023-03-17T08:47:21.871Z,3.70
2023-03-17T08:49:29.618Z,3.88
2023-03-17T08:51:37.216Z,2.83
2023-03-17T08:53:43.027Z,2.60
2023-03-17T08:55:47.970Z,2.90
2023-03-17T08:57:53.058Z,3.30
2023-03-17T08:59:57.981Z,3.38
2023-03-17T09:02:03.161Z,2.97
2023-03-17T09:04:08.992Z,2.40
2023-03-17T09:06:16.896Z,2.55
2023-03-17T09:08:21.948Z,3.10
2023-03-17T09:10:27.467Z,3.45
2023-03-17T09:12:34.227Z,2.40
2023-03-17T09:14:43.878Z,4.25
2023-03-17T09:16:50.369Z,4.05
2023-03-17T09:18:55.291Z,2.72
2023-03-17T09:21:02.470Z,3.92
2023-03-17T09:23:12.867Z,2.45
2023-03-17T09:25:18.061Z,11.73
2023-03-17T09:27:23.583Z,3.10
2023-03-17T09:29:29.185Z,3.03
2023-03-17T09:31:34.067Z,2.35
2023-03-17T09:33:38.738Z,2.17
2023-03-17T09:35:44.047Z,1.85
2023-03-17T09:37:50.014Z,2.45
2023-03-17T09:39:58.002Z,4.15
2023-03-17T09:42:22.945Z,2.80
2023-03-17T09:44:40.153Z,3.28
2023-03-17T09:46:55.310Z,2.42
2023-03-17T09:49:04.499Z,2.08
2023-03-17T09:51:12.551Z,2.30
2023-03-17T09:53:21.992Z,1.77
2023-03-17T09:55:33.814Z,3.88
2023-03-17T09:57:40.852Z,2.03
2023-03-17T09:59:48.095Z,3.22
2023-03-17T10:01:55.240Z,2.22
2023-03-17T10:04:00.009Z,3.97
2023-03-17T10:06:19.059Z,6.68
2023-03-17T10:08:31.626Z,2.83
2023-03-17T10:10:48.550Z,2.83
2023-03-17T10:13:05.549Z,3.53
2023-03-17T10:15:21.105Z,2.15
2023-03-17T10:17:29.047Z,2.20
2023-03-17T10:19:38.129Z,2.70
2023-03-17T10:21:52.588Z,3.88
2023-03-17T10:23:58.444Z,2.03
2023-03-17T10:26:10.645Z,2.88
2023-03-17T10:28:27.814Z,2.03
2023-03-17T10:30:35.792Z,3.03
2023-03-17T10:32:42.501Z,2.22
2023-03-17T10:34:48.735Z,1.83
2023-03-17T10:36:57.752Z,3.05
2023-03-17T10:39:03.259Z,2.58
2023-03-17T10:41:16.997Z,3.45
2023-03-17T10:43:23.542Z,2.25
2023-03-17T10:45:32.550Z,2.75
2023-03-17T10:47:40.055Z,2.05
2023-03-17T10:49:47.301Z,2.17
2023-03-17T10:51:55.322Z,2.90
2023-03-17T10:54:04.020Z,2.30
2023-03-17T10:56:21.155Z,1.77
2023-03-17T10:58:41.820Z,2.08
2023-03-17T11:01:00.417Z,2.38
2023-03-17T11:03:13.917Z,2.15
2023-03-17T11:05:24.674Z,1.58
2023-03-17T11:07:32.484Z,1.98
2023-03-17T11:09:39.416Z,2.42
2023-03-17T11:11:51.584Z,2.15
2023-03-17T11:14:05.152Z,3.03
2023-03-17T11:16:13.539Z,2.70
2023-03-17T11:18:23.945Z,2.10
2023-03-17T11:20:54.041Z,2.08
2023-03-17T11:23:05.502Z,1.55
2023-03-17T11:25:16.253Z,2.30
2023-03-17T11:27:32.544Z,3.38
2023-03-17T11:29:51.964Z,1.92
2023-03-17T11:32:02.773Z,2.20
2023-03-17T11:34:14.229Z,2.55
2023-03-17T11:36:36.355Z,2.42
2023-03-17T11:38:47.147Z,1.77
2023-03-17T11:41:30.453Z,1.75
2023-03-17T11:43:44.028Z,2.55
2023-03-17T11:45:55.423Z,1.58
2023-03-17T11:48:16.137Z,2.08
2023-03-17T11:50:31.176Z,1.92
2023-03-17T11:52:55.414Z,2.80
2023-03-17T11:55:10.231Z,2.25
2023-03-17T11:57:20.524Z,2.97
2023-03-17T11:59:37.479Z,2.88
2023-03-17T12:01:54.967Z,2.33
2023-03-17T12:04:12.373Z,1.75
2023-03-17T12:06:21.037Z,1.77
2023-03-17T12:08:33.144Z,3.15
2023-03-17T12:10:43.955Z,1.92
2023-03-17T12:12:53.817Z,1.65
2023-03-17T12:15:05.408Z,3.13
2023-03-17T12:17:18.622Z,1.52
2023-03-17T12:19:29.009Z,2.42
2023-03-17T12:21:38.747Z,1.95
2023-03-17T12:23:50.531Z,2.92
2023-03-17T12:26:02.562Z,2.28
2023-03-17T12:28:16.670Z,1.95
2023-03-17T12:30:33.226Z,2.72
2023-03-17T12:32:43.092Z,1.70
2023-03-17T12:34:55.431Z,3.13
2023-03-17T12:37:02.182Z,2.38
2023-03-17T12:39:13.369Z,2.38
2023-03-17T12:41:34.459Z,2.30
2023-03-17T12:43:47.757Z,2.05
2023-03-17T12:46:09.779Z,2.58
2023-03-17T12:48:47.311Z,1.80
2023-03-17T12:51:11.593Z,2.22
2023-03-17T12:53:32.658Z,1.85
2023-03-17T12:55:38.398Z,2.20
2023-03-17T12:57:45.111Z,1.50
2023-03-17T12:59:52.344Z,2.95
2023-03-17T13:02:08.946Z,1.58
2023-03-17T13:04:27.073Z,1.83
2023-03-17T13:06:34.869Z,2.33
2023-03-17T13:08:43.792Z,2.03
2023-03-17T13:10:49.247Z,1.33
2023-03-17T13:13:13.834Z,2.72
2023-03-17T13:15:47.192Z,1.40
2023-03-17T13:18:12.771Z,1.67
2023-03-17T13:20:21.792Z,2.35
2023-03-17T13:22:36.701Z,1.70
2023-03-17T13:24:51.098Z,1.75
2023-03-17T13:27:02.043Z,1.70
2023-03-17T13:29:26.851Z,3.28
2023-03-17T13:31:36.985Z,1.23
2023-03-17T13:33:52.209Z,1.95
2023-03-17T13:36:19.211Z,1.90
2023-03-17T13:38:52.518Z,2.72
2023-03-17T13:41:46.482Z,2.25
2023-03-17T13:44:05.886Z,4.45
2023-03-17T13:46:30.492Z,3.63
2023-03-17T13:48:38.736Z,4.30
2023-03-17T13:50:46.841Z,3.25
2023-03-17T13:52:56.884Z,3.00
2023-03-17T13:55:06.073Z,2.88
2023-03-17T13:57:29.654Z,2.17
2023-03-17T14:01:49.716Z,3.05
2023-03-17T14:03:55.702Z,2.35
2023-03-17T14:06:06.609Z,2.47
2023-03-17T14:08:20.282Z,3.22
2023-03-17T14:10:28.241Z,2.38
2023-03-17T14:12:41.228Z,3.10
2023-03-17T14:14:52.316Z,2.95
2023-03-17T14:17:03.867Z,2.60
2023-03-17T14:19:20.590Z,5.65
2023-03-17T14:21:33.110Z,3.42
2023-03-17T14:23:37.986Z,3.00
2023-03-17T14:25:43.578Z,3.78
2023-03-17T14:27:51.033Z,2.92
2023-03-17T14:29:56.206Z,2.05
2023-03-17T14:32:06.657Z,2.53
2023-03-17T14:34:16.703Z,2.40
2023-03-17T14:36:22.430Z,2.20
2023-03-17T14:38:32.413Z,2.33
2023-03-17T14:40:37.153Z,2.03
2023-03-17T14:42:41.849Z,2.38
2023-03-17T14:44:47.080Z,3.72
2023-03-17T14:46:51.837Z,2.95
2023-03-17T14:49:02.604Z,3.95
2023-03-17T14:51:11.930Z,4.38
2023-03-17T14:53:18.493Z,3.33
2023-03-17T14:55:34.477Z,4.13
2023-03-17T14:57:40.752Z,9.32
2023-03-17T14:59:47.186Z,4.55
2023-03-17T15:01:58.060Z,2.92
2023-03-17T15:04:10.693Z,3.92
2023-03-17T15:06:26.589Z,2.85
2023-03-17T15:08:59.557Z,3.25
2023-03-17T15:11:08.480Z,2.15
2023-03-17T15:13:15.531Z,3.65
2023-03-17T15:15:28.081Z,3.03
2023-03-17T15:17:36.487Z,2.78
2023-03-17T15:19:43.916Z,2.88
2023-03-17T15:21:48.863Z,2.25
2023-03-17T15:23:53.782Z,4.32
2023-03-17T15:25:59.887Z,2.42
2023-03-17T15:28:13.832Z,3.67
2023-03-17T15:30:20.136Z,3.10
2023-03-17T15:32:27.349Z,4.65
2023-03-17T15:34:32.090Z,2.60
2023-03-17T15:36:37.018Z,3.45
2023-03-17T15:38:42.133Z,3.05
2023-03-17T15:40:46.810Z,3.83
2023-03-17T15:42:51.910Z,2.67
2023-03-17T15:45:00.359Z,4.95
2023-03-17T15:47:06.106Z,2.97
2023-03-17T15:49:13.663Z,2.97
2023-03-17T15:51:20.933Z,2.97
2023-03-17T15:53:26.216Z,3.92
2023-03-17T15:55:33.051Z,4.15
2023-03-17T15:57:37.737Z,3.03
2023-03-17T15:59:42.877Z,2.97
2023-03-17T16:01:50.757Z,4.90
2023-03-17T16:03:56.174Z,3.85
2023-03-17T16:06:01.896Z,4.05
2023-03-17T16:08:07.029Z,3.83
2023-03-17T16:10:19.383Z,4.43
2023-03-17T16:12:24.248Z,3.67
2023-03-17T16:14:29.454Z,4.93
2023-03-17T16:16:39.346Z,8.48
2023-03-17T16:18:47.164Z,3.80
2023-03-17T16:20:53.436Z,4.03
2023-03-17T16:23:02.079Z,4.45
2023-03-17T16:25:09.501Z,6.75
2023-03-17T16:27:17.736Z,5.35
2023-03-17T16:29:23.731Z,4.50
2023-03-17T16:31:31.169Z,6.70
2023-03-17T16:33:42.261Z,4.18
2023-03-17T16:35:52.524Z,4.05
2023-03-17T16:37:58.136Z,4.03
2023-03-17T16:40:03.437Z,5.15
2023-03-17T16:42:25.214Z,4.30
2023-03-17T16:44:30.137Z,4.75
2023-03-17T16:46:37.166Z,4.32
2023-03-17T16:48:42.187Z,5.00
2023-03-17T16:50:50.140Z,4.60
2023-03-17T16:52:55.321Z,5.90
2023-03-17T16:55:00.186Z,6.07
2023-03-17T16:57:07.724Z,4.60
2023-03-17T16:59:18.012Z,5.57
2023-03-17T17:01:25.575Z,5.03
2023-03-17T17:03:31.230Z,4.65
2023-03-17T17:05:36.359Z,5.80
2023-03-17T17:07:43.759Z,5.72
2023-03-17T17:09:48.692Z,7.65
2023-03-17T17:11:53.774Z,7.88
2023-03-17T17:14:00.052Z,16.80
2023-03-17T17:16:05.248Z,17.40
2023-03-17T17:18:14.730Z,9.02
2023-03-17T17:20:22.900Z,7.28
2023-03-17T17:22:28.024Z,6.32
2023-03-17T17:24:38.108Z,6.68
2023-03-17T17:26:43.119Z,5.07
2023-03-17T17:28:47.800Z,4.03
2023-03-17T17:30:53.537Z,5.95
2023-03-17T17:32:59.909Z,4.60
2023-03-17T17:35:05.090Z,4.43
2023-03-17T17:37:12.592Z,4.95
2023-03-17T17:39:17.682Z,4.63
2023-03-17T17:41:25.259Z,6.13
2023-03-17T17:43:30.213Z,6.15
2023-03-17T17:45:34.923Z,7.13
2023-03-17T17:47:39.706Z,5.97
2023-03-17T17:49:44.593Z,5.32
2023-03-17T17:51:49.887Z,4.78
2023-03-17T17:53:54.579Z,5.13
2023-03-17T17:55:59.579Z,5.03
2023-03-17T17:58:07.034Z,4.47
2023-03-17T18:00:16.578Z,3.95
2023-03-17T18:02:21.513Z,3.95
2023-03-17T18:04:26.537Z,4.68
2023-03-17T18:06:31.506Z,5.00
2023-03-17T18:08:37.029Z,6.32
2023-03-17T18:10:41.643Z,5.70
2023-03-17T18:12:46.706Z,6.88
2023-03-17T18:14:54.046Z,5.90
2023-03-17T18:16:59.029Z,10.57
2023-03-17T18:19:03.962Z,6.20
2023-03-17T18:21:09.043Z,6.15
2023-03-17T18:23:13.760Z,4.93
2023-03-17T18:25:19.636Z,6.55
2023-03-17T18:27:24.446Z,6.00
2023-03-17T18:29:29.160Z,5.50
2023-03-17T18:31:41.783Z,8.18
2023-03-17T18:33:49.325Z,8.80
2023-03-17T18:35:55.885Z,10.77
2023-03-17T18:38:01.580Z,10.68
2023-03-17T18:40:18.600Z,9.40
2023-03-17T18:42:24.104Z,8.05
2023-03-17T18:44:29.226Z,8.90
2023-03-17T18:46:37.027Z,8.32
2023-03-17T18:48:42.393Z,9.10
2023-03-17T18:50:47.454Z,7.40
2023-03-17T18:52:53.142Z,6.65
2023-03-17T18:54:57.880Z,6.95
2023-03-17T18:57:02.964Z,7.80
2023-03-17T18:59:07.753Z,8.70
2023-03-17T19:01:12.756Z,8.07
2023-03-17T19:03:20.950Z,7.45
2023-03-17T19:05:26.059Z,9.02
2023-03-17T19:07:30.868Z,9.05
2023-03-17T19:09:35.556Z,7.78
2023-03-17T19:11:41.457Z,8.05
2023-03-17T19:13:46.614Z,7.80
2023-03-17T19:15:52.259Z,8.70
2023-03-17T19:17:57.343Z,7.65
2023-03-17T19:20:05.092Z,10.13
2023-03-17T19:22:11.190Z,8.75
2023-03-17T19:24:16.347Z,8.63
2023-03-17T19:26:21.251Z,9.73
2023-03-17T19:28:26.542Z,10.10
2023-03-17T19:30:31.735Z,7.15
2023-03-17T19:32:36.913Z,6.97
2023-03-17T19:34:41.730Z,8.70
2023-03-17T19:36:49.488Z,7.47
2023-03-17T19:38:54.166Z,8.95
2023-03-17T19:40:59.223Z,13.05
2023-03-17T19:43:04.638Z,15.50
2023-03-17T19:45:10.857Z,17.50
2023-03-17T19:47:15.595Z,18.15
2023-03-17T19:49:21.189Z,16.48
2023-03-17T19:51:27.252Z,19.50
2023-03-17T19:53:34.827Z,16.00
2023-03-17T19:55:39.896Z,13.13
2023-03-17T19:57:44.787Z,12.30
2023-03-17T19:59:49.569Z,11.07
2023-03-17T20:01:54.375Z,10.02
2023-03-17T20:03:59.267Z,17.23
2023-03-17T20:06:06.492Z,16.10
2023-03-17T20:08:11.813Z,11.10
2023-03-17T20:10:19.521Z,8.60
2023-03-17T20:12:25.300Z,5.97
2023-03-17T20:14:30.570Z,5.53
2023-03-17T20:16:37.032Z,5.70
2023-03-17T20:18:41.998Z,5.10
2023-03-17T20:20:49.520Z,5.72
2023-03-17T20:22:54.616Z,6.70
2023-03-17T20:24:59.420Z,7.20
2023-03-17T20:27:08.074Z,19.85
2023-03-17T20:29:14.520Z,19.35
2023-03-17T20:31:20.011Z,22.02
2023-03-17T20:33:25.069Z,19.10
2023-03-17T20:35:30.844Z,16.90
2023-03-17T20:37:35.685Z,16.95
2023-03-17T20:39:40.878Z,16.30
2023-03-17T20:41:45.579Z,12.00
2023-03-17T20:43:53.966Z,8.70
2023-03-17T20:45:58.961Z,9.13
2023-03-17T20:48:05.054Z,7.47
2023-03-17T20:50:10.892Z,8.73
2023-03-17T20:52:17.562Z,6.50
2023-03-17T20:54:23.370Z,6.65
2023-03-17T20:56:29.989Z,7.57
2023-03-17T20:58:34.817Z,7.40
2023-03-17T21:00:42.387Z,8.15
2023-03-17T21:02:50.409Z,7.97
2023-03-17T21:04:55.370Z,6.28
2023-03-17T21:07:00.163Z,7.70
2023-03-17T21:09:05.274Z,7.47
2023-03-17T21:11:16.125Z,9.85
2023-03-17T21:13:20.958Z,10.02
2023-03-17T21:15:25.711Z,9.23
2023-03-17T21:17:33.574Z,8.93
2023-03-17T21:19:38.849Z,9.43
2023-03-17T21:21:43.676Z,7.35
2023-03-17T21:23:49.083Z,7.45
2023-03-17T21:25:58.282Z,9.20
2023-03-17T21:28:04.084Z,8.45
2023-03-17T21:30:12.108Z,10.38
2023-03-17T21:32:16.902Z,11.43
2023-03-17T21:34:24.725Z,9.98
2023-03-17T21:36:29.664Z,8.40
2023-03-17T21:38:34.815Z,8.85
2023-03-17T21:40:39.873Z,8.90
2023-03-17T21:42:45.901Z,7.38
2023-03-17T21:44:52.168Z,8.30
2023-03-17T21:46:57.706Z,7.35
2023-03-17T21:49:03.588Z,9.15
2023-03-17T21:51:11.718Z,8.38
2023-03-17T21:53:17.337Z,7.32
2023-03-17T21:55:22.243Z,6.13
2023-03-17T21:57:27.892Z,12.93
2023-03-17T21:59:35.800Z,11.23
2023-03-17T22:01:41.092Z,14.50
2023-03-17T22:03:46.232Z,14.80
2023-03-17T22:05:51.367Z,9.07
2023-03-17T22:07:58.738Z,9.77
2023-03-17T22:10:07.071Z,7.90
2023-03-17T22:12:12.694Z,9.98
2023-03-17T22:14:20.107Z,7.80
2023-03-17T22:16:25.178Z,8.82
2023-03-17T22:18:30.124Z,5.85
2023-03-17T22:20:35.143Z,8.38
2023-03-17T22:22:39.889Z,6.82
2023-03-17T22:24:47.509Z,6.65
2023-03-17T22:26:52.507Z,6.18
2023-03-17T22:28:58.494Z,10.20
2023-03-17T22:31:05.186Z,6.32
2023-03-17T22:33:10.040Z,7.22
2023-03-17T22:35:14.775Z,5.72
2023-03-17T22:37:19.513Z,7.45
2023-03-17T22:39:24.253Z,9.50
2023-03-17T22:41:33.908Z,9.63
2023-03-17T22:43:40.233Z,8.93
2023-03-17T22:45:44.997Z,9.07
2023-03-17T22:47:49.704Z,8.25
2023-03-17T22:49:54.439Z,8.30
2023-03-17T22:51:59.392Z,13.13
2023-03-17T22:54:04.321Z,10.57
2023-03-17T22:56:11.058Z,7.53
2023-03-17T22:58:19.474Z,8.07
2023-03-17T23:00:25.780Z,7.70
2023-03-17T23:02:30.845Z,9.48
2023-03-17T23:04:36.114Z,13.73
2023-03-17T23:06:41.662Z,12.18
2023-03-17T23:08:47.585Z,9.32
2023-03-17T23:10:54.119Z,11.27
2023-03-17T23:12:58.981Z,12.13
2023-03-17T23:15:08.025Z,9.32
2023-03-17T23:17:13.262Z,8.48
2023-03-17T23:19:18.289Z,8.77
2023-03-17T23:21:26.609Z,9.15
2023-03-17T23:23:31.737Z,9.70
2023-03-17T23:25:36.794Z,9.75
2023-03-17T23:27:41.633Z,10.98
2023-03-17T23:29:46.620Z,9.48
2023-03-17T23:31:54.743Z,9.20
2023-03-17T23:33:59.714Z,8.45
2023-03-17T23:36:04.487Z,9.35
2023-03-17T23:38:09.925Z,8.38
2023-03-17T23:40:17.404Z,8.77
2023-03-17T23:42:22.445Z,7.57
2023-03-17T23:44:27.312Z,7.63
2023-03-17T23:46:32.116Z,8.38
2023-03-17T23:48:42.508Z,6.45
2023-03-17T23:50:47.499Z,7.15
2023-03-17T23:52:54.201Z,8.40
2023-03-17T23:54:59.463Z,7.93
2023-03-17T23:57:04.225Z,7.82
2023-03-17T23:59:09.842Z,6.07
